createdAt,value
2019-06-20T00:00:29.699Z,5.60
2019-06-20T00:02:58.732Z,5.70
2019-06-20T00:05:27.944Z,5.80
2019-06-20T00:07:57.045Z,5.33
2019-06-20T00:10:26.095Z,5.50
2019-06-20T00:13:00.351Z,5.43
2019-06-20T00:15:25.980Z,5.10
2019-06-20T00:17:54.934Z,5.30
2019-06-20T00:20:24.331Z,4.97
2019-06-20T00:22:53.271Z,4.50
2019-06-20T00:25:23.078Z,4.60
2019-06-20T00:27:52.033Z,4.60
2019-06-20T00:30:21.144Z,4.47
2019-06-20T00:32:50.094Z,4.87
2019-06-20T00:35:19.224Z,4.70
2019-06-20T00:37:48.289Z,4.70
2019-06-20T00:40:17.458Z,4.70
2019-06-20T00:42:46.809Z,4.90
2019-06-20T00:45:17.791Z,5.30
2019-06-20T00:47:46.845Z,6.47
2019-06-20T00:50:16.069Z,4.63
2019-06-20T00:52:45.109Z,4.80
2019-06-20T00:55:14.444Z,4.80
2019-06-20T00:57:43.392Z,4.60
2019-06-20T01:00:14.233Z,4.50
2019-06-20T01:02:43.191Z,4.90
2019-06-20T01:05:13.735Z,4.50
2019-06-20T01:07:42.708Z,4.50
2019-06-20T01:10:12.026Z,4.50
2019-06-20T01:12:41.065Z,4.83
2019-06-20T01:15:10.416Z,4.47
2019-06-20T01:17:39.660Z,4.60
2019-06-20T01:20:09.311Z,5.07
2019-06-20T01:22:38.376Z,4.87
2019-06-20T01:25:07.827Z,4.57
2019-06-20T01:27:37.263Z,4.77
2019-06-20T01:30:07.111Z,4.53
2019-06-20T01:32:36.143Z,4.73
2019-06-20T01:35:05.849Z,4.37
2019-06-20T01:37:35.084Z,4.60
2019-06-20T01:40:04.554Z,4.60
2019-06-20T01:42:33.540Z,4.07
2019-06-20T01:45:02.613Z,4.50
2019-06-20T01:47:31.664Z,4.40
2019-06-20T01:50:00.700Z,4.20
2019-06-20T01:52:29.940Z,4.73
2019-06-20T01:54:58.918Z,4.43
2019-06-20T01:57:27.980Z,4.43
2019-06-20T01:59:56.996Z,4.60
2019-06-20T02:02:26.119Z,4.17
2019-06-20T02:04:55.097Z,4.73
2019-06-20T02:07:27.984Z,4.30
2019-06-20T02:09:54.796Z,4.67
2019-06-20T02:12:23.813Z,4.60
2019-06-20T02:14:53.034Z,4.53
2019-06-20T02:17:22.077Z,4.03
2019-06-20T02:19:51.168Z,5.10
2019-06-20T02:22:20.309Z,4.60
2019-06-20T02:24:49.334Z,4.53
2019-06-20T02:27:18.639Z,4.60
2019-06-20T02:29:47.907Z,4.33
2019-06-20T02:32:17.078Z,4.70
2019-06-20T02:34:46.558Z,4.70
2019-06-20T02:37:15.533Z,4.70
2019-06-20T02:39:44.565Z,4.97
2019-06-20T02:42:13.780Z,4.83
2019-06-20T02:44:42.908Z,5.47
2019-06-20T02:47:11.986Z,5.10
2019-06-20T02:49:41.244Z,5.00
2019-06-20T02:52:10.321Z,4.77
2019-06-20T02:54:39.566Z,5.40
2019-06-20T02:57:08.621Z,5.20
2019-06-20T02:59:37.599Z,5.03
2019-06-20T03:02:07.108Z,5.20
2019-06-20T03:04:36.062Z,5.10
2019-06-20T03:07:05.108Z,5.03
2019-06-20T03:09:34.053Z,5.63
2019-06-20T03:12:03.478Z,5.40
2019-06-20T03:14:44.914Z,5.60
2019-06-20T03:17:03.368Z,5.33
2019-06-20T03:19:32.340Z,5.67
2019-06-20T03:22:01.354Z,5.50
2019-06-20T03:24:30.533Z,5.27
2019-06-20T03:26:59.633Z,5.83
2019-06-20T03:29:28.960Z,5.10
2019-06-20T03:31:57.997Z,4.80
2019-06-20T03:34:26.964Z,4.87
2019-06-20T03:36:56.176Z,5.50
2019-06-20T03:39:25.167Z,4.80
2019-06-20T03:41:54.224Z,5.00
2019-06-20T03:44:23.297Z,4.90
2019-06-20T03:46:52.341Z,4.90
2019-06-20T03:49:21.641Z,5.40
2019-06-20T03:51:51.771Z,5.77
2019-06-20T03:54:20.980Z,5.07
2019-06-20T03:56:50.014Z,5.10
2019-06-20T03:59:19.418Z,5.10
2019-06-20T04:01:49.285Z,4.97
2019-06-20T04:04:18.363Z,4.80
2019-06-20T04:06:47.651Z,5.03
2019-06-20T04:09:16.984Z,5.23
2019-06-20T04:11:46.090Z,5.00
2019-06-20T04:14:17.185Z,5.00
2019-06-20T04:16:46.200Z,5.20
2019-06-20T04:19:15.193Z,4.83
2019-06-20T04:21:44.313Z,4.90
2019-06-20T04:24:13.288Z,4.80
2019-06-20T04:26:42.324Z,4.90
2019-06-20T04:29:11.364Z,5.03
2019-06-20T04:31:40.412Z,5.60
2019-06-20T04:34:09.473Z,5.23
2019-06-20T04:36:38.523Z,5.23
2019-06-20T04:39:18.794Z,5.70
2019-06-20T04:41:38.455Z,4.90
2019-06-20T04:44:07.548Z,4.97
2019-06-20T04:46:42.581Z,4.80
2019-06-20T04:49:11.628Z,4.57
2019-06-20T04:51:40.648Z,4.60
2019-06-20T04:54:11.733Z,4.67
2019-06-20T04:56:40.737Z,5.47
2019-06-20T04:59:09.968Z,4.63
2019-06-20T05:01:39.007Z,4.30
2019-06-20T05:04:08.320Z,4.53
2019-06-20T05:06:37.524Z,4.60
2019-06-20T05:09:07.780Z,4.30
2019-06-20T05:11:36.967Z,4.13
2019-06-20T05:14:06.008Z,4.90
2019-06-20T05:16:35.074Z,4.33
2019-06-20T05:19:04.126Z,3.93
2019-06-20T05:21:33.067Z,4.23
2019-06-20T05:24:02.041Z,3.70
2019-06-20T05:26:31.084Z,4.00
2019-06-20T05:29:00.065Z,3.73
2019-06-20T05:31:29.008Z,3.87
2019-06-20T05:33:58.521Z,3.50
2019-06-20T05:36:27.524Z,4.00
2019-06-20T05:38:56.572Z,3.30
2019-06-20T05:41:25.575Z,3.27
2019-06-20T05:43:54.620Z,3.67
2019-06-20T05:46:24.028Z,3.80
2019-06-20T05:48:52.993Z,3.50
2019-06-20T05:51:21.973Z,3.10
2019-06-20T05:53:51.194Z,3.40
2019-06-20T05:56:20.172Z,2.70
2019-06-20T05:58:49.188Z,3.13
2019-06-20T06:01:19.149Z,3.25
2019-06-20T06:03:48.150Z,3.17
2019-06-20T06:06:17.272Z,3.73
2019-06-20T06:08:47.089Z,3.43
2019-06-20T06:11:16.698Z,3.90
2019-06-20T06:14:38.291Z,4.10
2019-06-20T06:17:07.587Z,3.33
2019-06-20T06:19:36.855Z,3.90
2019-06-20T06:22:06.225Z,3.80
2019-06-20T06:24:35.209Z,3.70
2019-06-20T06:27:04.667Z,3.90
2019-06-20T06:29:33.908Z,4.23
2019-06-20T06:32:03.316Z,4.10
2019-06-20T06:34:32.419Z,3.73
2019-06-20T06:37:01.483Z,3.80
2019-06-20T06:39:30.591Z,4.93
2019-06-20T06:41:59.623Z,4.30
2019-06-20T06:44:31.614Z,4.40
2019-06-20T06:47:00.485Z,4.83
2019-06-20T06:49:29.800Z,4.73
2019-06-20T06:51:58.852Z,4.30
2019-06-20T06:54:27.902Z,4.50
2019-06-20T06:56:56.992Z,4.73
2019-06-20T06:59:26.022Z,4.90
2019-06-20T07:01:55.007Z,5.27
2019-06-20T07:04:24.052Z,5.20
2019-06-20T07:06:53.116Z,4.70
2019-06-20T07:09:22.060Z,5.10
2019-06-20T07:11:51.126Z,4.77
2019-06-20T07:14:20.563Z,4.60
2019-06-20T07:16:59.735Z,4.47
2019-06-20T07:19:20.408Z,4.13
2019-06-20T07:21:49.477Z,5.00
2019-06-20T07:24:18.731Z,15.30
2019-06-20T07:26:47.780Z,4.60
2019-06-20T07:29:16.891Z,4.70
2019-06-20T07:31:46.157Z,4.57
2019-06-20T07:34:15.376Z,4.63
2019-06-20T07:36:44.413Z,4.37
2019-06-20T07:39:13.459Z,4.47
2019-06-20T07:41:42.840Z,3.90
2019-06-20T07:44:11.850Z,3.90
2019-06-20T07:46:40.915Z,3.90
2019-06-20T07:49:10.193Z,4.20
2019-06-20T07:51:39.503Z,4.00
2019-06-20T07:54:08.600Z,3.70
2019-06-20T07:56:37.930Z,4.07
2019-06-20T07:59:07.045Z,3.80
2019-06-20T08:01:36.000Z,3.30
2019-06-20T08:04:05.596Z,3.50
2019-06-20T08:06:34.918Z,3.30
2019-06-20T08:09:05.016Z,3.37
2019-06-20T08:11:34.102Z,3.50
2019-06-20T08:14:03.071Z,3.70
2019-06-20T08:16:32.141Z,3.00
2019-06-20T08:19:01.201Z,3.20
2019-06-20T08:21:30.231Z,3.17
2019-06-20T08:23:59.203Z,3.00
2019-06-20T08:26:28.254Z,2.98
2019-06-20T08:29:10.202Z,3.00
2019-06-20T08:31:28.120Z,2.72
2019-06-20T08:33:57.692Z,3.15
2019-06-20T08:36:27.986Z,3.30
2019-06-20T08:38:58.581Z,3.52
2019-06-20T08:41:27.880Z,3.10
2019-06-20T08:43:58.451Z,5.17
2019-06-20T08:46:27.757Z,3.30
2019-06-20T08:48:58.249Z,4.15
2019-06-20T08:51:27.563Z,4.40
2019-06-20T08:53:57.539Z,3.00
2019-06-20T08:56:26.795Z,3.58
2019-06-20T08:58:57.341Z,3.27
2019-06-20T09:01:26.933Z,3.33
2019-06-20T09:03:57.001Z,3.10
2019-06-20T09:06:26.817Z,3.52
2019-06-20T09:08:56.720Z,3.35
2019-06-20T09:11:26.522Z,3.65
2019-06-20T09:13:57.022Z,3.80
2019-06-20T09:16:26.279Z,3.27
2019-06-20T09:18:56.614Z,2.80
2019-06-20T09:21:25.723Z,2.75
2019-06-20T09:23:55.695Z,2.90
2019-06-20T09:26:24.960Z,3.05
2019-06-20T09:28:55.572Z,2.92
2019-06-20T09:31:24.642Z,2.60
2019-06-20T09:33:53.857Z,2.50
2019-06-20T09:36:22.780Z,2.40
2019-06-20T09:38:52.480Z,2.55
2019-06-20T09:41:22.628Z,2.50
2019-06-20T09:43:52.733Z,2.12
2019-06-20T09:46:21.869Z,2.35
2019-06-20T09:48:52.428Z,2.37
2019-06-20T09:51:21.658Z,2.27
2019-06-20T09:53:51.869Z,2.58
2019-06-20T09:56:21.161Z,2.55
2019-06-20T09:58:51.132Z,2.47
2019-06-20T10:01:20.382Z,2.45
2019-06-20T10:03:50.509Z,2.22
2019-06-20T10:06:20.000Z,2.47
2019-06-20T10:08:50.072Z,2.40
2019-06-20T10:11:19.372Z,2.30
2019-06-20T10:13:48.351Z,2.77
2019-06-20T10:16:17.551Z,2.17
2019-06-20T10:18:48.164Z,2.10
2019-06-20T10:21:17.413Z,2.45
2019-06-20T10:23:47.683Z,2.10
2019-06-20T10:26:16.779Z,2.50
2019-06-20T10:28:46.406Z,2.25
2019-06-20T10:31:16.548Z,2.00
2019-06-20T10:33:46.826Z,2.22
2019-06-20T10:36:16.218Z,2.22
2019-06-20T10:38:46.434Z,2.10
2019-06-20T10:41:15.879Z,2.10
2019-06-20T10:43:45.808Z,2.30
2019-06-20T10:46:15.937Z,2.40
2019-06-20T10:48:45.971Z,2.27
2019-06-20T10:51:32.922Z,2.27
2019-06-20T10:54:02.178Z,2.27
2019-06-20T10:56:31.518Z,2.55
2019-06-20T10:59:00.908Z,2.30
2019-06-20T11:01:29.936Z,2.60
2019-06-20T11:03:59.188Z,2.42
2019-06-20T11:06:28.620Z,2.80
2019-06-20T11:08:57.688Z,2.58
2019-06-20T11:11:27.033Z,2.60
2019-06-20T11:13:56.134Z,2.40
2019-06-20T11:16:25.093Z,3.65
2019-06-20T11:18:54.060Z,2.55
2019-06-20T11:21:23.094Z,2.27
2019-06-20T11:23:52.105Z,2.67
2019-06-20T11:26:21.120Z,2.42
2019-06-20T11:28:50.084Z,2.60
2019-06-20T11:31:19.641Z,2.25
2019-06-20T11:33:48.567Z,2.42
2019-06-20T11:36:17.566Z,2.60
2019-06-20T11:41:42.097Z,2.62
2019-06-20T11:44:11.188Z,3.00
2019-06-20T11:46:40.710Z,2.50
2019-06-20T11:49:09.982Z,2.47
2019-06-20T11:51:39.864Z,2.35
2019-06-20T11:54:08.921Z,2.15
2019-06-20T11:56:37.976Z,2.10
2019-06-20T11:59:07.081Z,2.25
2019-06-20T12:01:36.145Z,2.52
2019-06-20T12:04:05.241Z,2.30
2019-06-20T12:06:34.205Z,2.33
2019-06-20T12:09:03.214Z,2.47
2019-06-20T12:11:32.190Z,2.60
2019-06-20T12:14:01.141Z,2.45
2019-06-20T12:16:30.103Z,2.40
2019-06-20T12:18:59.073Z,2.33
2019-06-20T12:21:28.301Z,2.37
2019-06-20T12:23:57.652Z,2.47
2019-06-20T12:26:27.128Z,2.60
2019-06-20T12:28:56.330Z,2.30
2019-06-20T12:31:25.549Z,2.40
2019-06-20T12:33:54.508Z,2.60
2019-06-20T12:36:23.486Z,2.60
2019-06-20T12:38:52.488Z,2.25
2019-06-20T12:41:21.461Z,2.70
2019-06-20T12:43:50.504Z,2.65
2019-06-20T12:46:19.831Z,2.40
2019-06-20T12:48:49.204Z,2.50
2019-06-20T12:51:18.120Z,2.10
2019-06-20T12:53:47.233Z,2.62
2019-06-20T12:56:16.209Z,2.45
2019-06-20T12:58:46.576Z,4.30
2019-06-20T13:01:15.768Z,2.50
2019-06-20T13:03:46.268Z,2.58
2019-06-20T13:06:15.817Z,2.52
2019-06-20T13:08:45.288Z,2.60
2019-06-20T13:11:14.351Z,2.40
2019-06-20T13:13:44.383Z,2.75
2019-06-20T13:16:13.694Z,2.30
2019-06-20T13:18:43.153Z,2.47
2019-06-20T13:21:13.810Z,2.40
2019-06-20T13:23:43.227Z,2.65
2019-06-20T13:26:12.283Z,2.10
2019-06-20T13:28:59.060Z,2.20
2019-06-20T13:31:12.273Z,2.33
2019-06-20T13:33:42.419Z,2.52
2019-06-20T13:36:11.735Z,2.33
2019-06-20T13:38:41.533Z,2.10
2019-06-20T13:41:11.522Z,2.37
2019-06-20T13:43:40.900Z,2.40
2019-06-20T13:46:10.024Z,2.30
2019-06-20T13:48:40.822Z,2.45
2019-06-20T13:51:10.114Z,2.98
2019-06-20T13:53:41.140Z,2.83
2019-06-20T13:56:10.106Z,2.45
2019-06-20T13:58:40.619Z,2.52
2019-06-20T14:01:09.970Z,3.00
2019-06-20T14:03:41.679Z,3.00
2019-06-20T14:06:09.898Z,2.98
2019-06-20T14:08:39.299Z,2.83
2019-06-20T14:11:08.433Z,1.70
2019-06-20T14:13:37.462Z,1.77
2019-06-20T14:16:06.837Z,1.63
2019-06-20T14:18:35.842Z,1.97
2019-06-20T14:21:04.953Z,1.60
2019-06-20T14:23:33.928Z,2.00
2019-06-20T14:26:02.940Z,2.43
2019-06-20T14:28:31.908Z,1.90
2019-06-20T14:31:01.167Z,2.00
2019-06-20T14:33:31.906Z,1.87
2019-06-20T14:36:01.856Z,1.90
2019-06-20T14:38:30.942Z,2.20
2019-06-20T14:40:59.926Z,2.30
2019-06-20T14:43:29.093Z,2.10
2019-06-20T14:45:58.144Z,2.20
2019-06-20T14:48:27.129Z,2.43
2019-06-20T14:50:56.549Z,2.20
2019-06-20T14:53:25.617Z,2.37
2019-06-20T14:55:54.803Z,2.40
2019-06-20T14:58:23.891Z,2.33
2019-06-20T15:00:54.166Z,2.20
2019-06-20T15:03:23.363Z,1.93
2019-06-20T15:05:54.714Z,2.50
2019-06-20T15:08:23.715Z,2.40
2019-06-20T15:10:53.768Z,2.58
2019-06-20T15:13:23.309Z,2.25
2019-06-20T15:15:53.429Z,2.45
2019-06-20T15:18:22.400Z,2.80
2019-06-20T15:20:51.981Z,2.40
2019-06-20T15:23:22.113Z,2.77
2019-06-20T15:25:52.135Z,2.65
2019-06-20T15:28:21.701Z,2.90
2019-06-20T15:30:50.932Z,2.83
2019-06-20T15:33:20.186Z,2.87
2019-06-20T15:35:51.214Z,2.92
2019-06-20T15:38:20.053Z,2.72
2019-06-20T15:40:49.822Z,2.60
2019-06-20T15:43:19.829Z,2.75
2019-06-20T15:45:50.276Z,2.67
2019-06-20T15:48:19.972Z,3.00
2019-06-20T15:50:48.912Z,2.83
2019-06-20T15:53:18.135Z,2.80
2019-06-20T15:55:47.073Z,3.08
2019-06-20T15:58:16.092Z,2.87
2019-06-20T16:00:45.467Z,3.25
2019-06-20T16:03:14.861Z,2.85
2019-06-20T16:05:44.391Z,3.00
2019-06-20T16:08:13.464Z,2.80
2019-06-20T16:10:43.100Z,3.00
2019-06-20T16:13:12.149Z,3.50
2019-06-20T16:15:41.197Z,2.95
2019-06-20T16:18:10.313Z,2.55
2019-06-20T16:20:39.834Z,2.83
2019-06-20T16:23:08.802Z,3.12
2019-06-20T16:25:37.892Z,3.00
2019-06-20T16:28:07.225Z,3.25
2019-06-20T16:30:36.174Z,2.90
2019-06-20T16:33:05.505Z,3.37
2019-06-20T16:35:34.541Z,3.20
2019-06-20T16:38:04.050Z,2.87
2019-06-20T16:40:41.347Z,3.52
2019-06-20T16:43:10.626Z,3.12
2019-06-20T16:45:39.713Z,2.45
2019-06-20T16:48:09.008Z,2.72
2019-06-20T16:50:38.645Z,2.83
2019-06-20T16:53:07.603Z,2.80
2019-06-20T16:55:36.636Z,2.70
2019-06-20T16:58:05.986Z,2.58
2019-06-20T17:00:35.165Z,2.42
2019-06-20T17:03:04.197Z,2.50
2019-06-20T17:05:33.494Z,2.77
2019-06-20T17:08:02.520Z,2.87
2019-06-20T17:10:31.560Z,2.70
2019-06-20T17:13:00.588Z,2.90
2019-06-20T17:15:29.724Z,2.80
2019-06-20T17:17:58.826Z,2.90
2019-06-20T17:20:28.175Z,2.47
2019-06-20T17:22:57.129Z,2.70
2019-06-20T17:25:26.195Z,2.72
2019-06-20T17:27:55.232Z,2.83
2019-06-20T17:30:24.910Z,2.75
2019-06-20T17:32:53.857Z,2.70
2019-06-20T17:35:23.194Z,2.60
2019-06-20T17:37:52.691Z,2.80
2019-06-20T17:40:23.396Z,2.90
2019-06-20T17:42:52.605Z,2.60
2019-06-20T17:45:22.522Z,2.60
2019-06-20T17:47:52.088Z,2.80
2019-06-20T17:50:21.697Z,2.70
2019-06-20T17:52:50.647Z,3.08
2019-06-20T17:55:20.057Z,2.60
2019-06-20T17:57:49.008Z,2.72
2019-06-20T18:00:20.172Z,2.80
2019-06-20T18:02:49.317Z,2.87
2019-06-20T18:05:18.544Z,2.83
2019-06-20T18:07:48.033Z,2.75
2019-06-20T18:10:19.461Z,4.40
2019-06-20T18:12:48.606Z,10.23
2019-06-20T18:15:18.399Z,9.25
2019-06-20T18:17:47.476Z,9.93
2019-06-20T18:20:16.956Z,14.50
2019-06-20T18:22:46.165Z,12.13
2019-06-20T18:25:15.662Z,7.03
2019-06-20T18:27:44.601Z,7.42
2019-06-20T18:30:14.844Z,6.15
2019-06-20T18:32:43.847Z,6.15
2019-06-20T18:35:13.176Z,5.20
2019-06-20T18:37:42.454Z,4.78
2019-06-20T18:40:12.029Z,6.40
2019-06-20T18:42:41.301Z,6.37
2019-06-20T18:45:11.156Z,5.60
2019-06-20T18:47:40.247Z,4.40
2019-06-20T18:50:09.842Z,4.30
2019-06-20T18:52:51.512Z,3.05
2019-06-20T18:55:09.771Z,3.35
2019-06-20T18:57:38.831Z,2.80
2019-06-20T19:00:08.336Z,3.58
2019-06-20T19:02:37.783Z,3.00
2019-06-20T19:05:07.057Z,3.13
2019-06-20T19:07:36.112Z,3.23
2019-06-20T19:10:05.700Z,3.07
2019-06-20T19:12:34.680Z,3.03
2019-06-20T19:15:03.870Z,3.10
2019-06-20T19:17:32.925Z,3.07
2019-06-20T19:20:01.897Z,3.50
2019-06-20T19:22:31.642Z,3.70
2019-06-20T19:25:03.823Z,3.40
2019-06-20T19:27:45.094Z,3.47
2019-06-20T19:30:01.949Z,3.67
2019-06-20T19:32:30.943Z,3.70
2019-06-20T19:35:02.523Z,3.70
2019-06-20T19:37:31.681Z,3.70
2019-06-20T19:40:00.687Z,3.43
2019-06-20T19:42:30.396Z,3.33
2019-06-20T19:44:59.424Z,3.60
2019-06-20T19:47:28.576Z,3.90
2019-06-20T19:49:57.680Z,4.00
2019-06-20T19:52:26.753Z,3.67
2019-06-20T19:54:55.846Z,3.60
2019-06-20T19:57:25.274Z,3.60
2019-06-20T19:59:55.013Z,4.00
2019-06-20T20:02:24.156Z,3.90
2019-06-20T20:04:55.350Z,3.90
2019-06-20T20:07:24.396Z,3.90
2019-06-20T20:09:53.678Z,4.40
2019-06-20T20:12:22.884Z,4.27
2019-06-20T20:14:51.833Z,4.47
2019-06-20T20:17:20.844Z,4.30
2019-06-20T20:19:49.875Z,4.43
2019-06-20T20:22:18.956Z,4.87
2019-06-20T20:24:48.253Z,5.60
2019-06-20T20:27:18.008Z,5.03
2019-06-20T20:29:47.225Z,5.53
2019-06-20T20:32:16.426Z,4.73
2019-06-20T20:34:45.372Z,5.40
2019-06-20T20:37:14.878Z,4.93
2019-06-20T20:39:43.843Z,5.43
2019-06-20T20:42:13.065Z,4.50
2019-06-20T20:44:42.095Z,4.53
2019-06-20T20:47:11.071Z,4.93
2019-06-20T20:49:40.176Z,4.90
2019-06-20T20:52:09.153Z,4.93
2019-06-20T20:54:38.127Z,5.10
2019-06-20T20:57:07.109Z,5.30
2019-06-20T20:59:36.228Z,5.63
2019-06-20T21:02:05.381Z,5.80
2019-06-20T21:04:34.424Z,5.33
2019-06-20T21:07:03.395Z,5.67
2019-06-20T21:09:32.451Z,5.67
2019-06-20T21:12:01.717Z,5.13
2019-06-20T21:14:30.680Z,5.53
2019-06-20T21:16:59.765Z,5.33
2019-06-20T21:19:28.731Z,5.60
2019-06-20T21:21:57.687Z,6.60
2019-06-20T21:24:26.736Z,6.00
2019-06-20T21:26:55.806Z,6.03
2019-06-20T21:29:24.795Z,6.13
2019-06-20T21:31:53.739Z,6.50
2019-06-20T21:34:22.746Z,7.20
2019-06-20T21:36:51.688Z,8.10
2019-06-20T21:39:20.708Z,7.10
2019-06-20T21:41:49.731Z,7.20
2019-06-20T21:44:18.707Z,6.97
2019-06-20T21:46:48.087Z,7.10
2019-06-20T21:49:17.460Z,7.20
2019-06-20T21:51:46.773Z,7.30
2019-06-20T21:54:15.738Z,7.50
2019-06-20T21:56:44.837Z,6.93
2019-06-20T21:59:13.816Z,7.60
2019-06-20T22:01:43.107Z,7.90
2019-06-20T22:04:12.418Z,8.40
2019-06-20T22:06:41.790Z,8.50
2019-06-20T22:09:11.492Z,7.40
2019-06-20T22:11:40.640Z,6.90
2019-06-20T22:14:09.948Z,6.03
2019-06-20T22:16:39.192Z,6.30
2019-06-20T22:19:08.260Z,6.40
2019-06-20T22:21:37.527Z,5.00
2019-06-20T22:24:06.563Z,4.77
2019-06-20T22:26:35.588Z,4.80
2019-06-20T22:29:05.716Z,3.80
2019-06-20T22:31:34.751Z,3.50
2019-06-20T22:34:04.029Z,4.00
2019-06-20T22:36:40.069Z,3.50
2019-06-20T22:39:04.429Z,3.80
2019-06-20T22:41:33.498Z,4.27
2019-06-20T22:44:02.542Z,5.13
2019-06-20T22:46:31.572Z,4.90
2019-06-20T22:49:00.544Z,5.17
2019-06-20T22:51:29.546Z,4.80
2019-06-20T22:53:58.596Z,4.73
2019-06-20T22:56:27.615Z,5.00
2019-06-20T22:58:56.853Z,5.00
2019-06-20T23:01:25.808Z,5.10
2019-06-20T23:03:54.759Z,5.23
2019-06-20T23:06:23.812Z,5.47
2019-06-20T23:08:52.774Z,4.63
2019-06-20T23:11:21.992Z,5.23
2019-06-20T23:13:50.942Z,5.07
2019-06-20T23:16:19.898Z,5.13
2019-06-20T23:18:48.868Z,4.67
2019-06-20T23:21:17.912Z,5.20
2019-06-20T23:23:46.855Z,5.10
2019-06-20T23:26:15.980Z,4.73
2019-06-20T23:28:47.297Z,4.83
2019-06-20T23:31:16.264Z,5.30
2019-06-20T23:33:45.301Z,4.80
2019-06-20T23:36:14.275Z,4.83
2019-06-20T23:38:43.303Z,5.67
2019-06-20T23:41:12.340Z,5.60
2019-06-20T23:43:41.304Z,4.90
2019-06-20T23:46:10.273Z,5.63
2019-06-20T23:48:39.242Z,5.27
2019-06-20T23:51:09.305Z,5.03
2019-06-20T23:53:38.857Z,5.17
2019-06-20T23:56:08.174Z,5.00
2019-06-20T23:58:37.377Z,4.77
